createdAt,value
2022-07-31T00:02:09.633Z,3.60
2022-07-31T00:04:56.468Z,3.20
2022-07-31T00:07:43.093Z,3.37
2022-07-31T00:10:30.382Z,3.20
2022-07-31T00:13:17.307Z,3.53
2022-07-31T00:16:04.075Z,3.50
2022-07-31T00:18:52.203Z,3.73
2022-07-31T00:21:38.971Z,3.27
2022-07-31T00:24:27.040Z,3.30
2022-07-31T00:27:16.484Z,3.13
2022-07-31T00:30:03.404Z,3.50
2022-07-31T00:32:51.989Z,3.30
2022-07-31T00:35:40.219Z,3.27
2022-07-31T00:38:27.688Z,3.10
2022-07-31T00:41:14.413Z,3.67
2022-07-31T00:44:01.167Z,3.93
2022-07-31T00:46:48.398Z,3.30
2022-07-31T00:49:37.732Z,3.53
2022-07-31T00:52:26.314Z,4.20
2022-07-31T00:55:12.866Z,3.77
2022-07-31T00:57:59.563Z,3.50
2022-07-31T01:00:46.264Z,3.47
2022-07-31T01:03:33.045Z,3.60
2022-07-31T01:06:19.959Z,3.87
2022-07-31T01:09:08.275Z,3.47
2022-07-31T01:12:01.837Z,3.90
2022-07-31T01:14:52.638Z,3.80
2022-07-31T01:17:41.272Z,3.27
2022-07-31T01:20:30.179Z,3.27
2022-07-31T01:23:39.435Z,3.80
2022-07-31T01:26:50.642Z,3.50
2022-07-31T01:29:45.470Z,3.67
2022-07-31T01:32:37.276Z,3.83
2022-07-31T01:35:29.683Z,4.27
2022-07-31T01:38:20.903Z,3.90
2022-07-31T01:41:11.643Z,3.83
2022-07-31T01:43:59.877Z,3.47
2022-07-31T01:46:49.723Z,3.40
2022-07-31T01:49:39.453Z,3.57
2022-07-31T01:52:29.490Z,3.93
2022-07-31T01:55:17.748Z,3.80
2022-07-31T01:58:06.792Z,4.03
2022-07-31T02:00:55.527Z,3.53
2022-07-31T02:03:46.383Z,3.67
2022-07-31T02:06:40.689Z,3.60
2022-07-31T02:09:29.006Z,3.80
2022-07-31T02:12:16.223Z,3.70
2022-07-31T02:15:05.637Z,3.93
2022-07-31T02:17:54.436Z,4.33
2022-07-31T02:20:56.396Z,4.00
2022-07-31T02:23:45.435Z,3.77
2022-07-31T02:26:34.940Z,3.60
2022-07-31T02:29:23.080Z,3.90
2022-07-31T02:32:11.898Z,4.10
2022-07-31T02:35:01.427Z,4.40
2022-07-31T02:37:52.614Z,3.90
2022-07-31T02:40:42.466Z,4.20
2022-07-31T02:43:32.044Z,4.47
2022-07-31T02:46:23.224Z,4.30
2022-07-31T02:49:10.730Z,4.23
2022-07-31T02:51:58.621Z,4.37
2022-07-31T02:54:47.636Z,4.60
2022-07-31T02:57:34.827Z,4.30
2022-07-31T03:00:27.069Z,4.40
2022-07-31T03:03:14.607Z,4.57
2022-07-31T03:06:02.666Z,4.70
2022-07-31T03:08:49.749Z,4.30
2022-07-31T03:11:41.759Z,4.77
2022-07-31T03:14:32.748Z,4.60
2022-07-31T03:17:20.436Z,4.50
2022-07-31T03:20:08.336Z,4.27
2022-07-31T03:22:55.289Z,4.50
2022-07-31T03:25:43.288Z,4.93
2022-07-31T03:28:31.177Z,4.33
2022-07-31T03:31:17.870Z,4.10
2022-07-31T03:34:04.595Z,4.67
2022-07-31T03:36:52.825Z,5.00
2022-07-31T03:39:39.838Z,5.83
2022-07-31T03:42:32.128Z,5.17
2022-07-31T03:45:22.310Z,4.87
2022-07-31T03:48:10.123Z,4.97
2022-07-31T03:50:59.491Z,4.40
2022-07-31T03:53:50.135Z,5.13
2022-07-31T03:57:01.117Z,4.90
2022-07-31T03:59:50.319Z,4.50
2022-07-31T04:02:38.527Z,4.90
2022-07-31T04:05:42.235Z,4.40
2022-07-31T04:08:29.114Z,5.00
2022-07-31T04:11:17.988Z,4.30
2022-07-31T04:14:04.784Z,4.43
2022-07-31T04:16:52.215Z,4.17
2022-07-31T04:19:40.533Z,4.93
2022-07-31T04:22:27.280Z,4.97
2022-07-31T04:25:15.386Z,4.37
2022-07-31T04:28:07.226Z,4.70
2022-07-31T04:30:54.161Z,4.47
2022-07-31T04:33:47.123Z,4.80
2022-07-31T04:36:36.680Z,4.63
2022-07-31T04:39:23.577Z,4.40
2022-07-31T04:42:11.645Z,4.33
2022-07-31T04:44:58.560Z,4.60
2022-07-31T04:47:45.377Z,4.20
2022-07-31T04:50:33.106Z,4.13
2022-07-31T04:53:21.661Z,4.33
2022-07-31T04:56:26.948Z,4.30
2022-07-31T04:59:17.047Z,4.57
2022-07-31T05:02:07.939Z,4.23
2022-07-31T05:04:56.506Z,4.03
2022-07-31T05:07:50.857Z,4.00
2022-07-31T05:11:04.103Z,4.10
2022-07-31T05:13:51.230Z,3.83
2022-07-31T05:16:39.092Z,3.47
2022-07-31T05:19:29.825Z,3.43
2022-07-31T05:22:35.544Z,3.20
2022-07-31T05:25:46.813Z,3.70
2022-07-31T05:28:33.700Z,3.00
2022-07-31T05:31:20.622Z,3.10
2022-07-31T05:34:08.688Z,3.27
2022-07-31T05:36:55.649Z,3.33
2022-07-31T05:39:42.879Z,3.37
2022-07-31T05:42:50.137Z,3.37
2022-07-31T05:46:03.422Z,3.27
2022-07-31T05:48:52.396Z,3.03
2022-07-31T05:51:40.057Z,3.07
2022-07-31T05:54:27.528Z,3.10
2022-07-31T05:57:33.942Z,3.17
2022-07-31T06:00:25.214Z,3.57
2022-07-31T06:03:12.524Z,3.30
2022-07-31T06:06:16.936Z,3.30
2022-07-31T06:09:05.501Z,3.40
2022-07-31T06:11:57.164Z,2.93
2022-07-31T06:14:43.844Z,3.17
2022-07-31T06:17:50.959Z,3.00
2022-07-31T06:20:46.577Z,2.80
2022-07-31T06:23:33.367Z,2.87
2022-07-31T06:26:26.833Z,2.60
2022-07-31T06:29:14.606Z,2.90
2022-07-31T06:32:01.742Z,2.60
2022-07-31T06:34:51.387Z,2.53
2022-07-31T06:37:38.415Z,2.00
2022-07-31T06:40:25.302Z,2.40
2022-07-31T06:43:30.905Z,2.20
2022-07-31T06:46:49.123Z,2.30
2022-07-31T06:49:56.788Z,1.90
2022-07-31T06:52:48.473Z,1.53
2022-07-31T06:55:36.983Z,1.60
2022-07-31T06:58:32.584Z,1.83
2022-07-31T07:01:21.254Z,1.50
2022-07-31T07:04:08.616Z,1.40
2022-07-31T07:06:56.788Z,1.30
2022-07-31T07:09:43.983Z,1.50
2022-07-31T07:12:36.027Z,1.80
2022-07-31T07:15:23.252Z,1.90
2022-07-31T07:18:09.924Z,1.60
2022-07-31T07:21:10.053Z,1.63
2022-07-31T07:23:58.523Z,1.50
2022-07-31T07:26:56.697Z,1.40
2022-07-31T07:29:43.534Z,1.27
2022-07-31T07:32:30.237Z,1.60
2022-07-31T07:35:17.319Z,1.40
2022-07-31T07:38:11.965Z,1.43
2022-07-31T07:41:01.010Z,1.60
2022-07-31T07:43:51.728Z,1.60
2022-07-31T07:46:39.656Z,1.60
2022-07-31T07:49:31.654Z,1.57
2022-07-31T07:52:45.159Z,1.83
2022-07-31T07:56:02.228Z,1.60
2022-07-31T07:59:14.886Z,2.07
2022-07-31T08:02:20.898Z,1.77
2022-07-31T08:05:08.785Z,1.77
2022-07-31T08:07:55.249Z,1.70
2022-07-31T08:10:57.463Z,1.77
2022-07-31T08:14:03.093Z,2.13
2022-07-31T08:17:24.985Z,2.20
2022-07-31T08:20:12.081Z,1.73
2022-07-31T08:22:59.301Z,2.10
2022-07-31T08:25:45.901Z,2.07
2022-07-31T08:28:33.858Z,2.10
2022-07-31T08:31:24.118Z,2.03
2022-07-31T08:34:40.371Z,2.10
2022-07-31T08:37:52.384Z,2.30
2022-07-31T08:40:43.718Z,2.43
2022-07-31T08:44:00.578Z,2.30
2022-07-31T08:46:41.686Z,2.70
2022-07-31T08:49:31.398Z,2.37
2022-07-31T08:52:20.319Z,2.50
2022-07-31T08:55:55.464Z,2.40
2022-07-31T08:58:23.813Z,2.50
2022-07-31T09:01:13.567Z,2.50
2022-07-31T09:04:02.879Z,2.60
2022-07-31T09:06:50.214Z,2.40
2022-07-31T09:09:41.323Z,2.40
2022-07-31T09:12:38.584Z,2.03
2022-07-31T09:15:28.789Z,2.10
2022-07-31T09:18:18.779Z,2.20
2022-07-31T09:21:09.012Z,1.90
2022-07-31T09:23:55.611Z,2.10
2022-07-31T09:26:42.803Z,2.10
2022-07-31T09:29:35.665Z,1.80
2022-07-31T09:32:23.899Z,1.90
2022-07-31T09:35:40.010Z,1.90
2022-07-31T09:38:34.794Z,1.90
2022-07-31T09:41:58.201Z,2.30
2022-07-31T09:45:24.303Z,2.07
2022-07-31T09:48:18.298Z,1.93
2022-07-31T09:51:16.909Z,2.13
2022-07-31T09:54:09.305Z,2.53
2022-07-31T09:57:18.928Z,1.90
2022-07-31T10:00:17.147Z,2.10
2022-07-31T10:03:08.438Z,2.10
2022-07-31T10:05:56.053Z,1.87
2022-07-31T10:08:48.321Z,2.20
2022-07-31T10:11:59.853Z,2.50
2022-07-31T10:14:53.346Z,2.23
2022-07-31T10:17:45.162Z,1.90
2022-07-31T10:20:53.337Z,2.20
2022-07-31T10:23:50.091Z,2.03
2022-07-31T10:26:59.254Z,6.73
2022-07-31T10:29:45.386Z,2.57
2022-07-31T10:32:33.827Z,2.30
2022-07-31T10:35:55.752Z,2.27
2022-07-31T10:39:28.647Z,3.40
2022-07-31T10:42:37.057Z,2.20
2022-07-31T10:45:25.398Z,2.43
2022-07-31T10:48:21.421Z,2.10
2022-07-31T10:51:22.644Z,2.20
2022-07-31T10:54:25.474Z,2.30
2022-07-31T10:57:55.288Z,2.43
2022-07-31T11:01:07.878Z,2.13
2022-07-31T11:04:07.548Z,2.13
2022-07-31T11:07:19.989Z,4.07
2022-07-31T11:10:24.782Z,2.63
2022-07-31T11:13:47.155Z,2.43
2022-07-31T11:16:55.744Z,2.07
2022-07-31T11:19:59.731Z,2.30
2022-07-31T11:22:57.734Z,2.50
2022-07-31T11:25:46.587Z,2.37
2022-07-31T11:28:33.682Z,2.43
2022-07-31T11:31:20.237Z,2.50
2022-07-31T11:34:08.525Z,2.53
2022-07-31T11:36:55.874Z,2.70
2022-07-31T11:39:43.869Z,2.40
2022-07-31T11:42:44.736Z,2.60
2022-07-31T11:45:33.590Z,2.60
2022-07-31T11:48:25.446Z,2.57
2022-07-31T11:51:22.731Z,2.20
2022-07-31T11:54:09.505Z,2.30
2022-07-31T11:56:57.283Z,2.90
2022-07-31T11:59:45.833Z,2.50
2022-07-31T12:02:35.410Z,2.67
2022-07-31T12:05:38.369Z,2.60
2022-07-31T12:08:30.180Z,2.40
2022-07-31T12:11:19.567Z,2.70
2022-07-31T12:14:06.034Z,2.70
2022-07-31T12:16:52.914Z,2.40
2022-07-31T12:19:39.754Z,2.50
2022-07-31T12:22:26.678Z,2.60
2022-07-31T12:25:14.612Z,2.93
2022-07-31T12:28:01.378Z,2.50
2022-07-31T12:30:59.557Z,2.40
2022-07-31T12:33:46.231Z,2.57
2022-07-31T12:36:32.945Z,2.47
2022-07-31T12:39:19.725Z,2.43
2022-07-31T12:42:08.055Z,2.57
2022-07-31T12:44:56.875Z,2.60
2022-07-31T12:47:45.811Z,2.60
2022-07-31T12:50:38.219Z,2.30
2022-07-31T12:53:25.147Z,2.90
2022-07-31T12:56:15.496Z,2.80
2022-07-31T12:59:03.619Z,2.37
2022-07-31T13:01:50.472Z,2.37
2022-07-31T13:04:37.226Z,2.80
2022-07-31T13:07:25.552Z,2.40
2022-07-31T13:10:20.160Z,2.43
2022-07-31T13:13:10.718Z,2.67
2022-07-31T13:15:58.706Z,2.30
2022-07-31T13:18:47.608Z,2.70
2022-07-31T13:21:48.806Z,2.63
2022-07-31T13:24:45.164Z,2.50
2022-07-31T13:27:33.996Z,2.53
2022-07-31T13:30:26.942Z,2.43
2022-07-31T13:33:15.609Z,2.93
2022-07-31T13:36:02.197Z,2.37
2022-07-31T13:38:49.123Z,3.03
2022-07-31T13:41:35.987Z,2.73
2022-07-31T13:44:25.308Z,2.53
2022-07-31T13:47:11.935Z,2.83
2022-07-31T13:50:00.149Z,2.77
2022-07-31T13:52:46.992Z,2.53
2022-07-31T13:55:33.757Z,2.93
2022-07-31T13:58:20.483Z,2.77
2022-07-31T14:01:07.535Z,2.80
2022-07-31T14:03:54.030Z,2.70
2022-07-31T14:06:42.560Z,2.87
2022-07-31T14:09:34.272Z,3.00
2022-07-31T14:12:21.325Z,2.77
2022-07-31T14:15:09.570Z,2.90
2022-07-31T14:17:56.385Z,2.60
2022-07-31T14:20:43.613Z,2.77
2022-07-31T14:23:34.353Z,2.90
2022-07-31T14:26:24.148Z,3.27
2022-07-31T14:29:12.053Z,2.87
2022-07-31T14:31:58.535Z,2.93
2022-07-31T14:34:48.519Z,2.93
2022-07-31T14:37:36.839Z,3.80
2022-07-31T14:40:26.167Z,2.87
2022-07-31T14:43:13.256Z,3.10
2022-07-31T14:46:00.015Z,3.47
2022-07-31T14:48:46.708Z,3.00
2022-07-31T14:51:33.581Z,2.93
2022-07-31T14:54:20.293Z,5.47
2022-07-31T14:57:08.479Z,3.17
2022-07-31T14:59:55.533Z,3.00
2022-07-31T15:02:42.590Z,3.00
2022-07-31T15:06:49.302Z,2.90
2022-07-31T15:08:36.346Z,2.87
2022-07-31T15:11:23.174Z,3.03
2022-07-31T15:14:31.277Z,3.20
2022-07-31T15:17:20.224Z,2.80
2022-07-31T15:20:07.530Z,2.80
2022-07-31T15:22:54.131Z,3.00
2022-07-31T15:25:41.044Z,3.27
2022-07-31T15:28:27.795Z,2.83
2022-07-31T15:31:16.724Z,2.60
2022-07-31T15:34:03.533Z,2.60
2022-07-31T15:36:50.296Z,2.87
2022-07-31T15:39:37.880Z,2.70
2022-07-31T15:42:24.653Z,2.80
2022-07-31T15:45:18.997Z,3.00
2022-07-31T15:48:10.116Z,2.60
2022-07-31T15:50:56.786Z,2.70
2022-07-31T15:53:44.171Z,2.40
2022-07-31T15:56:32.860Z,2.77
2022-07-31T15:59:24.996Z,2.60
2022-07-31T16:02:12.037Z,3.00
2022-07-31T16:05:11.389Z,2.60
2022-07-31T16:08:30.116Z,2.63
2022-07-31T16:11:15.352Z,2.93
2022-07-31T16:14:02.020Z,2.70
2022-07-31T16:16:52.688Z,2.60
2022-07-31T16:19:44.446Z,2.80
2022-07-31T16:22:32.748Z,3.03
2022-07-31T16:25:19.212Z,2.93
2022-07-31T16:28:06.293Z,2.40
2022-07-31T16:30:57.635Z,2.60
2022-07-31T16:33:47.155Z,2.60
2022-07-31T16:36:38.354Z,2.60
2022-07-31T16:39:26.292Z,2.70
2022-07-31T16:42:13.068Z,2.90
2022-07-31T16:44:59.862Z,2.40
2022-07-31T16:47:51.407Z,2.60
2022-07-31T16:50:38.287Z,2.50
2022-07-31T16:54:11.366Z,2.60
2022-07-31T16:56:34.316Z,2.53
2022-07-31T16:59:21.228Z,2.47
2022-07-31T17:02:08.112Z,2.37
2022-07-31T17:04:54.680Z,2.67
2022-07-31T17:07:42.439Z,2.27
2022-07-31T17:10:29.357Z,2.50
2022-07-31T17:13:17.848Z,2.50
2022-07-31T17:16:04.486Z,2.27
2022-07-31T17:18:54.533Z,2.80
2022-07-31T17:21:44.565Z,2.40
2022-07-31T17:24:32.140Z,2.70
2022-07-31T17:27:19.556Z,2.50
2022-07-31T17:30:09.225Z,2.67
2022-07-31T17:32:56.104Z,2.70
2022-07-31T17:35:42.637Z,2.30
2022-07-31T17:38:29.451Z,2.53
2022-07-31T17:41:24.591Z,2.30
2022-07-31T17:44:12.378Z,2.93
2022-07-31T17:47:03.678Z,2.40
2022-07-31T17:49:52.112Z,2.50
2022-07-31T17:52:39.013Z,3.03
2022-07-31T17:55:26.342Z,2.70
2022-07-31T17:58:13.004Z,2.70
2022-07-31T18:00:59.871Z,3.00
2022-07-31T18:03:50.043Z,2.77
2022-07-31T18:06:36.919Z,3.00
2022-07-31T18:09:24.205Z,2.90
2022-07-31T18:12:15.399Z,2.63
2022-07-31T18:15:02.497Z,2.87
2022-07-31T18:17:50.767Z,3.00
2022-07-31T18:20:39.106Z,2.73
2022-07-31T18:23:29.495Z,3.03
2022-07-31T18:26:19.006Z,2.73
2022-07-31T18:29:06.291Z,2.80
2022-07-31T18:31:53.108Z,3.00
2022-07-31T18:34:39.828Z,3.30
2022-07-31T18:37:29.695Z,3.00
2022-07-31T18:40:17.408Z,3.03
2022-07-31T18:43:09.621Z,3.50
2022-07-31T18:45:57.240Z,2.77
2022-07-31T18:48:43.982Z,2.80
2022-07-31T18:51:31.059Z,3.10
2022-07-31T18:54:20.027Z,3.17
2022-07-31T18:57:07.877Z,3.00
2022-07-31T18:59:54.637Z,3.00
2022-07-31T19:02:41.432Z,3.17
2022-07-31T19:05:54.703Z,3.13
2022-07-31T19:08:42.067Z,3.13
2022-07-31T19:11:34.883Z,3.40
2022-07-31T19:14:22.049Z,3.70
2022-07-31T19:17:21.559Z,3.23
2022-07-31T19:20:14.939Z,3.37
2022-07-31T19:23:18.474Z,3.67
2022-07-31T19:26:06.090Z,3.00
2022-07-31T19:28:53.924Z,3.17
2022-07-31T19:31:40.692Z,3.40
2022-07-31T19:34:27.554Z,3.90
2022-07-31T19:37:15.863Z,3.27
2022-07-31T19:40:02.499Z,3.77
2022-07-31T19:42:49.327Z,3.40
2022-07-31T19:45:37.468Z,3.60
2022-07-31T19:48:45.704Z,3.43
2022-07-31T19:51:33.775Z,3.23
2022-07-31T19:54:20.245Z,3.43
2022-07-31T19:57:07.153Z,3.50
2022-07-31T19:59:54.016Z,3.63
2022-07-31T20:02:42.481Z,3.50
2022-07-31T20:05:28.997Z,3.83
2022-07-31T20:08:15.756Z,3.67
2022-07-31T20:11:04.441Z,3.70
2022-07-31T20:13:51.162Z,3.93
2022-07-31T20:16:38.034Z,3.63
2022-07-31T20:19:26.184Z,4.00
2022-07-31T20:22:12.859Z,3.80
2022-07-31T20:24:59.672Z,4.00
2022-07-31T20:27:46.400Z,5.67
2022-07-31T20:30:33.224Z,4.10
2022-07-31T20:33:20.335Z,3.83
2022-07-31T20:36:10.192Z,3.70
2022-07-31T20:38:58.872Z,3.90
2022-07-31T20:41:47.464Z,3.77
2022-07-31T20:44:34.894Z,3.70
2022-07-31T20:47:24.594Z,3.67
2022-07-31T20:50:11.570Z,3.60
2022-07-31T20:52:59.604Z,3.80
2022-07-31T20:55:47.552Z,3.40
2022-07-31T20:58:34.252Z,4.17
2022-07-31T21:01:21.839Z,3.50
2022-07-31T21:04:09.782Z,3.83
2022-07-31T21:06:56.152Z,3.43
2022-07-31T21:09:44.411Z,4.10
2022-07-31T21:12:31.016Z,3.63
2022-07-31T21:15:40.710Z,3.70
2022-07-31T21:18:24.514Z,3.83
2022-07-31T21:21:14.188Z,4.77
2022-07-31T21:24:01.097Z,3.90
2022-07-31T21:26:51.906Z,4.00
2022-07-31T21:29:40.893Z,4.00
2022-07-31T21:32:28.234Z,4.20
2022-07-31T21:35:16.155Z,4.80
2022-07-31T21:38:23.230Z,4.27
2022-07-31T21:41:10.855Z,4.10
2022-07-31T21:44:00.041Z,4.40
2022-07-31T21:46:51.970Z,4.23
2022-07-31T21:49:40.011Z,4.30
2022-07-31T21:52:30.007Z,4.40
2022-07-31T21:55:16.649Z,4.60
2022-07-31T21:58:03.427Z,5.13
2022-07-31T22:00:51.622Z,4.40
2022-07-31T22:03:38.312Z,4.23
2022-07-31T22:06:42.912Z,4.43
2022-07-31T22:09:29.955Z,4.93
2022-07-31T22:12:16.633Z,5.33
2022-07-31T22:15:03.380Z,4.83
2022-07-31T22:17:51.458Z,5.30
2022-07-31T22:20:38.689Z,4.73
2022-07-31T22:23:26.152Z,5.47
2022-07-31T22:26:13.132Z,5.33
2022-07-31T22:29:00.502Z,5.50
2022-07-31T22:31:49.950Z,5.70
2022-07-31T22:34:42.300Z,4.93
2022-07-31T22:37:29.411Z,5.30
2022-07-31T22:40:17.439Z,5.90
2022-07-31T22:43:04.123Z,5.87
2022-07-31T22:46:13.485Z,5.67
2022-07-31T22:49:00.440Z,5.20
2022-07-31T22:51:48.614Z,5.17
2022-07-31T22:54:35.267Z,5.20
2022-07-31T22:57:23.026Z,5.23
2022-07-31T23:00:11.947Z,5.40
2022-07-31T23:02:58.665Z,5.43
2022-07-31T23:06:27.984Z,5.07
2022-07-31T23:08:55.058Z,4.70
2022-07-31T23:11:41.863Z,4.93
2022-07-31T23:14:30.094Z,5.67
2022-07-31T23:17:22.369Z,5.13
2022-07-31T23:20:11.335Z,4.77
2022-07-31T23:22:58.290Z,5.47
2022-07-31T23:25:46.441Z,5.07
2022-07-31T23:28:33.222Z,5.37
2022-07-31T23:31:20.764Z,5.60
2022-07-31T23:34:07.398Z,5.60
2022-07-31T23:36:54.131Z,4.73
2022-07-31T23:39:41.119Z,4.90
2022-07-31T23:42:43.012Z,4.70
2022-07-31T23:45:29.511Z,4.70
2022-07-31T23:48:18.308Z,4.30
2022-07-31T23:51:06.490Z,5.33
2022-07-31T23:53:53.483Z,4.40
2022-07-31T23:56:40.092Z,3.77
2022-07-31T23:59:34.137Z,4.47
